Welkenraedt, Belgium
Current Conditions -  °F | °C
As of 5:44 PM on Tuesday 27 Jan 2015 (Local Time) from EBLB Reporting Station
Broken Clouds Broken Clouds  
Wind Chill: 28°   Ceiling: 1000
Heat Index: 34°   Visibility: 4mi
Dew Point: 32°   Wind: 7mph
Humidity: 93%   Direction: 290°WNW
Pressure: 30.15"   Gusts: NA
Location:  50.66°N, 5.97°E
Report Text: EBLB 271644Z AUTO 29006KT 7000 FEW005/// SCT007/// BKN010/// 01/00 Q1021 GRN
Loading
Personal Weather Stations






























Interactive Weather Map New forecast layout! Learn more

10-Day Weather Forecast

Advertisements
Track Severe Weather on mobile